createdAt,value
2019-06-26T00:03:03.473Z,100111.70
2019-06-26T00:06:09.137Z,100109.60
2019-06-26T00:09:14.842Z,100108.94
2019-06-26T00:12:20.575Z,100103.19
2019-06-26T00:15:26.305Z,100117.03
2019-06-26T00:18:32.334Z,100116.94
2019-06-26T00:21:38.026Z,100119.23
2019-06-26T00:24:43.716Z,100117.56
2019-06-26T00:27:49.423Z,100123.47
2019-06-26T00:30:55.121Z,100121.22
2019-06-26T00:34:00.855Z,100119.20
2019-06-26T00:37:06.509Z,100114.55
2019-06-26T00:40:12.446Z,100118.60
2019-06-26T00:43:18.093Z,100115.52
2019-06-26T00:46:23.798Z,100112.68
2019-06-26T00:49:29.451Z,100112.41
2019-06-26T00:52:35.156Z,100117.05
2019-06-26T00:55:40.835Z,100117.56
2019-06-26T00:58:46.538Z,100114.95
2019-06-26T01:01:52.403Z,100120.12
2019-06-26T01:05:00.172Z,100124.28
2019-06-26T01:08:05.914Z,100124.00
2019-06-26T01:11:11.609Z,100124.06
2019-06-26T01:14:17.260Z,100122.20
2019-06-26T01:17:22.963Z,100130.08
2019-06-26T01:20:28.629Z,100123.98
2019-06-26T01:23:35.314Z,100125.52
2019-06-26T01:26:41.001Z,100127.77
2019-06-26T01:29:46.691Z,100134.25
2019-06-26T01:32:52.373Z,100133.52
2019-06-26T01:35:58.101Z,100132.08
2019-06-26T01:39:04.738Z,100134.30
2019-06-26T01:42:10.650Z,100144.65
2019-06-26T01:45:16.514Z,100141.86
2019-06-26T01:48:22.212Z,100138.58
2019-06-26T01:51:27.920Z,100142.02
2019-06-26T01:54:33.689Z,100148.73
2019-06-26T01:57:40.439Z,100148.02
2019-06-26T02:00:46.066Z,100140.53
2019-06-26T02:03:51.765Z,100144.88
2019-06-26T02:06:57.448Z,100143.98
2019-06-26T02:10:03.247Z,100139.19
2019-06-26T02:13:08.918Z,100135.83
2019-06-26T02:16:14.598Z,100137.70
2019-06-26T02:19:21.191Z,100137.17
2019-06-26T02:22:26.893Z,100137.62
2019-06-26T02:25:32.643Z,100134.95
2019-06-26T02:28:38.422Z,100131.01
2019-06-26T02:31:44.176Z,100128.29
2019-06-26T02:34:49.900Z,100131.38
2019-06-26T02:37:56.533Z,100130.92
2019-06-26T02:41:02.285Z,100126.66
2019-06-26T02:44:07.945Z,100130.94
2019-06-26T02:47:20.186Z,100122.56
2019-06-26T02:50:20.982Z,100116.50
2019-06-26T02:53:26.689Z,100111.52
2019-06-26T02:56:32.367Z,100117.00
2019-06-26T02:59:38.099Z,100112.84
2019-06-26T03:02:43.804Z,100118.92
2019-06-26T03:05:49.498Z,100116.56
2019-06-26T03:08:55.211Z,100112.27
2019-06-26T03:12:00.874Z,100111.73
2019-06-26T03:15:09.226Z,100113.71
2019-06-26T03:18:14.523Z,100117.82
2019-06-26T03:21:20.619Z,100122.13
2019-06-26T03:24:26.329Z,100125.81
2019-06-26T03:27:32.127Z,100121.72
2019-06-26T03:30:38.794Z,100126.26
2019-06-26T03:33:44.533Z,100124.80
2019-06-26T03:36:50.276Z,100137.77
2019-06-26T03:39:55.989Z,100135.09
2019-06-26T03:43:01.815Z,100132.15
2019-06-26T03:46:07.511Z,100137.67
2019-06-26T03:49:13.264Z,100144.11
2019-06-26T03:52:18.960Z,100152.40
2019-06-26T03:55:24.839Z,100147.00
2019-06-26T03:58:30.569Z,100144.03
2019-06-26T04:01:36.307Z,100157.22
2019-06-26T04:04:41.963Z,100155.50
2019-06-26T04:07:47.696Z,100154.55
2019-06-26T04:10:53.568Z,100153.13
2019-06-26T04:13:59.227Z,100161.52
2019-06-26T04:17:05.052Z,100159.30
2019-06-26T04:20:10.953Z,100159.35
2019-06-26T04:23:16.635Z,100154.00
2019-06-26T04:26:22.342Z,100163.38
2019-06-26T04:29:28.070Z,100166.02
2019-06-26T04:32:33.721Z,100174.44
2019-06-26T04:35:39.788Z,100175.29
2019-06-26T04:38:45.475Z,100183.29
2019-06-26T04:41:51.162Z,100180.91
2019-06-26T04:44:56.937Z,100177.69
2019-06-26T04:48:02.756Z,100171.47
2019-06-26T04:51:08.566Z,100177.42
2019-06-26T04:54:14.510Z,100175.55
2019-06-26T04:57:20.287Z,100184.51
2019-06-26T05:00:26.243Z,100189.19
2019-06-26T05:03:32.043Z,100185.02
2019-06-26T05:06:37.803Z,100187.04
2019-06-26T05:09:45.418Z,100188.80
2019-06-26T05:12:51.040Z,100188.75
2019-06-26T05:15:56.728Z,100182.23
2019-06-26T05:19:02.403Z,100188.56
2019-06-26T05:22:08.108Z,100193.09
2019-06-26T05:25:14.207Z,100196.80
2019-06-26T05:28:19.886Z,100203.70
2019-06-26T05:31:25.718Z,100209.58
2019-06-26T05:34:31.446Z,100212.91
2019-06-26T05:37:37.180Z,100217.95
2019-06-26T05:40:44.585Z,100214.82
2019-06-26T05:43:50.350Z,100217.63
2019-06-26T05:46:56.067Z,100223.39
2019-06-26T05:50:01.848Z,100228.95
2019-06-26T05:53:07.717Z,100230.70
2019-06-26T05:56:13.384Z,100231.94
2019-06-26T05:59:19.051Z,100229.23
2019-06-26T06:02:24.943Z,100232.77
2019-06-26T06:05:32.808Z,100233.68
2019-06-26T06:08:38.480Z,100239.77
2019-06-26T06:11:44.139Z,100237.91
2019-06-26T06:14:49.844Z,100238.77
2019-06-26T06:17:56.613Z,100225.05
2019-06-26T06:21:05.561Z,100225.97
2019-06-26T06:24:11.251Z,100226.27
2019-06-26T06:27:17.010Z,100226.69
2019-06-26T06:30:23.223Z,100225.16
2019-06-26T06:33:28.917Z,100225.22
2019-06-26T06:36:34.737Z,100215.78
2019-06-26T06:39:40.679Z,100221.83
2019-06-26T06:42:46.543Z,100218.36
2019-06-26T06:45:52.273Z,100217.22
2019-06-26T06:48:57.977Z,100221.95
2019-06-26T06:52:03.791Z,100224.13
2019-06-26T06:55:09.674Z,100227.66
2019-06-26T06:58:15.459Z,100226.83
2019-06-26T07:01:21.102Z,100232.34
2019-06-26T07:04:26.959Z,100230.27
2019-06-26T07:07:32.659Z,100225.20
2019-06-26T07:10:38.340Z,100228.75
2019-06-26T07:13:44.110Z,100229.28
2019-06-26T07:16:49.928Z,100228.20
2019-06-26T07:19:55.602Z,100219.03
2019-06-26T07:23:01.335Z,100226.29
2019-06-26T07:26:07.395Z,100225.52
2019-06-26T07:29:13.095Z,100226.36
2019-06-26T07:32:18.786Z,100217.45
2019-06-26T07:35:28.440Z,100218.79
2019-06-26T07:38:34.195Z,100229.59
2019-06-26T07:41:39.899Z,100230.64
2019-06-26T07:44:45.627Z,100236.61
2019-06-26T07:47:52.460Z,100241.23
2019-06-26T07:50:58.140Z,100247.35
2019-06-26T07:54:03.840Z,100252.83
2019-06-26T07:57:09.503Z,100244.39
2019-06-26T08:00:17.121Z,100245.38
2019-06-26T08:03:22.861Z,100245.84
2019-06-26T08:06:28.602Z,100237.13
2019-06-26T08:09:34.756Z,100242.22
2019-06-26T08:12:40.395Z,100247.05
2019-06-26T08:15:46.178Z,100241.49
2019-06-26T08:18:51.878Z,100237.40
2019-06-26T08:21:57.645Z,100237.69
2019-06-26T08:25:03.319Z,100241.74
2019-06-26T08:28:09.023Z,100240.67
2019-06-26T08:31:14.719Z,100241.75
2019-06-26T08:34:20.388Z,100238.25
2019-06-26T08:37:26.052Z,100247.98
2019-06-26T08:40:31.819Z,100253.02
2019-06-26T08:43:37.467Z,100249.76
2019-06-26T08:46:43.179Z,100248.89
2019-06-26T08:49:48.910Z,100254.09
2019-06-26T08:52:54.619Z,100254.16
2019-06-26T08:56:00.323Z,100250.27
2019-06-26T08:59:06.043Z,100252.77
2019-06-26T09:02:11.704Z,100246.59
2019-06-26T09:05:19.560Z,100247.50
2019-06-26T09:08:26.197Z,100247.03
2019-06-26T09:11:36.459Z,100252.57
2019-06-26T09:14:42.716Z,100245.16
2019-06-26T09:17:48.505Z,100247.37
2019-06-26T09:20:59.113Z,100247.86
2019-06-26T09:24:03.591Z,100241.45
2019-06-26T09:27:09.365Z,100239.65
2019-06-26T09:30:16.394Z,100238.36
2019-06-26T09:33:22.079Z,100230.61
2019-06-26T09:36:30.172Z,100230.36
2019-06-26T09:39:35.901Z,100227.37
2019-06-26T09:42:41.690Z,100226.00
2019-06-26T09:45:48.673Z,100218.43
2019-06-26T09:48:54.389Z,100221.21
2019-06-26T09:52:00.052Z,100218.98
2019-06-26T09:55:06.329Z,100220.67
2019-06-26T09:58:13.350Z,100208.48
2019-06-26T10:01:19.618Z,100216.06
2019-06-26T10:04:25.340Z,100222.50
2019-06-26T10:07:30.964Z,100215.25
2019-06-26T10:10:37.828Z,100209.05
2019-06-26T10:13:43.688Z,100203.08
2019-06-26T10:16:49.375Z,100200.93
2019-06-26T10:19:55.070Z,100189.87
2019-06-26T10:23:00.748Z,100188.80
2019-06-26T10:26:06.456Z,100185.57
2019-06-26T10:29:12.227Z,100182.59
2019-06-26T10:32:17.934Z,100175.16
2019-06-26T10:35:23.884Z,100184.00
2019-06-26T10:38:29.582Z,100172.64
2019-06-26T10:41:35.389Z,100166.31
2019-06-26T10:44:41.034Z,100168.08
2019-06-26T10:47:46.847Z,100162.75
2019-06-26T10:50:58.532Z,100159.81
2019-06-26T10:54:01.033Z,100156.56
2019-06-26T10:57:06.791Z,100153.14
2019-06-26T11:00:12.972Z,100146.91
2019-06-26T11:03:18.772Z,100148.16
2019-06-26T11:06:24.689Z,100158.55
2019-06-26T11:09:30.370Z,100152.09
2019-06-26T11:12:36.099Z,100145.76
2019-06-26T11:15:41.825Z,100149.80
2019-06-26T11:18:47.554Z,100141.28
2019-06-26T11:21:53.328Z,100134.69
2019-06-26T11:24:59.059Z,100130.40
2019-06-26T11:28:04.879Z,100129.17
2019-06-26T11:31:12.105Z,100127.66
2019-06-26T11:34:17.791Z,100111.80
2019-06-26T11:37:23.498Z,100111.09
2019-06-26T11:40:29.320Z,100107.73
2019-06-26T11:43:35.019Z,100104.14
2019-06-26T11:46:40.676Z,100104.33
2019-06-26T11:49:59.434Z,100109.45
2019-06-26T11:52:59.654Z,100106.98
2019-06-26T11:56:05.564Z,100106.17
2019-06-26T11:59:11.376Z,100103.77
2019-06-26T12:02:18.098Z,100094.92
2019-06-26T12:05:24.015Z,100094.25
2019-06-26T12:08:29.706Z,100094.91
2019-06-26T12:11:39.220Z,100092.08
2019-06-26T12:14:45.056Z,100088.27
2019-06-26T12:17:50.812Z,100084.72
2019-06-26T12:20:56.508Z,100074.59
2019-06-26T12:24:02.532Z,100071.34
2019-06-26T12:27:08.212Z,100066.37
2019-06-26T12:30:14.238Z,100058.52
2019-06-26T12:33:19.891Z,100065.47
2019-06-26T12:36:25.855Z,100070.27
2019-06-26T12:39:31.527Z,100067.84
2019-06-26T12:42:37.281Z,100071.90
2019-06-26T12:45:47.693Z,100076.47
2019-06-26T12:48:53.446Z,100075.33
2019-06-26T12:51:59.175Z,100082.98
2019-06-26T12:55:05.455Z,100082.70
2019-06-26T12:58:13.865Z,100122.39
2019-06-26T13:01:18.587Z,100133.14
2019-06-26T13:04:24.304Z,100151.63
2019-06-26T13:07:30.034Z,100137.30
2019-06-26T13:10:49.041Z,100126.88
2019-06-26T13:13:43.203Z,100127.91
2019-06-26T13:16:48.901Z,100118.41
2019-06-26T13:19:54.566Z,100120.48
2019-06-26T13:23:00.299Z,100110.46
2019-06-26T13:26:05.959Z,100115.08
2019-06-26T13:29:11.688Z,100109.73
2019-06-26T13:32:17.324Z,100105.06
2019-06-26T13:35:24.339Z,100110.34
2019-06-26T13:38:30.215Z,100120.45
2019-06-26T13:41:35.949Z,100120.35
2019-06-26T13:44:42.666Z,100125.41
2019-06-26T13:47:48.438Z,100139.48
2019-06-26T13:51:08.220Z,100146.78
2019-06-26T13:54:01.515Z,100176.73
2019-06-26T13:57:07.185Z,100146.48
2019-06-26T14:00:13.793Z,100155.67
2019-06-26T14:03:19.683Z,100155.42
2019-06-26T14:06:25.462Z,100169.22
2019-06-26T14:09:31.181Z,100151.45
2019-06-26T14:12:37.026Z,100143.77
2019-06-26T14:15:42.905Z,100142.14
2019-06-26T14:18:48.613Z,100139.31
2019-06-26T14:21:54.326Z,100138.08
2019-06-26T14:25:00.049Z,100134.40
2019-06-26T14:28:05.762Z,100123.93
2019-06-26T14:31:11.453Z,100133.53
2019-06-26T14:34:17.166Z,100126.00
2019-06-26T14:37:22.884Z,100123.06
2019-06-26T14:40:28.558Z,100121.09
2019-06-26T14:43:34.278Z,100127.63
2019-06-26T14:46:40.043Z,100122.42
2019-06-26T14:49:45.743Z,100114.84
2019-06-26T14:52:51.407Z,100117.78
2019-06-26T14:55:57.209Z,100118.33
2019-06-26T14:59:03.012Z,100122.08
2019-06-26T15:02:08.719Z,100120.41
2019-06-26T15:05:14.436Z,100125.78
2019-06-26T15:08:20.108Z,100126.11
2019-06-26T15:11:25.972Z,100128.39
2019-06-26T15:14:31.625Z,100125.97
2019-06-26T15:17:37.403Z,100121.46
2019-06-26T15:20:43.125Z,100120.94
2019-06-26T15:23:48.789Z,100117.25
2019-06-26T15:27:02.747Z,100112.67
2019-06-26T15:30:08.705Z,100120.25
2019-06-26T15:33:14.450Z,100120.73
2019-06-26T15:36:20.124Z,100129.29
2019-06-26T15:39:26.135Z,100123.22
2019-06-26T15:42:31.817Z,100126.75
2019-06-26T15:45:37.470Z,100121.03
2019-06-26T15:48:43.200Z,100126.20
2019-06-26T15:51:48.999Z,100123.27
2019-06-26T15:54:54.700Z,100134.94
2019-06-26T15:58:00.397Z,100146.13
2019-06-26T16:01:06.228Z,100147.28
2019-06-26T16:04:11.897Z,100156.02
2019-06-26T16:07:17.621Z,100159.39
2019-06-26T16:10:23.638Z,100161.52
2019-06-26T16:13:30.531Z,100160.34
2019-06-26T16:16:38.700Z,100172.18
2019-06-26T16:19:45.421Z,100176.08
2019-06-26T16:22:51.224Z,100188.16
2019-06-26T16:25:57.071Z,100188.08
2019-06-26T16:29:02.887Z,100192.17
2019-06-26T16:32:08.652Z,100185.63
2019-06-26T16:35:15.828Z,100177.61
2019-06-26T16:38:21.610Z,100185.60
2019-06-26T16:41:28.265Z,100167.91
2019-06-26T16:44:34.059Z,100156.70
2019-06-26T16:47:40.204Z,100158.77
2019-06-26T16:50:46.889Z,100147.80
2019-06-26T16:53:53.099Z,100146.59
2019-06-26T16:56:58.796Z,100135.95
2019-06-26T17:00:09.907Z,100132.16
2019-06-26T17:03:12.809Z,100129.77
2019-06-26T17:06:18.605Z,100126.83
2019-06-26T17:09:24.309Z,100125.13
2019-06-26T17:12:29.973Z,100128.63
2019-06-26T17:15:35.657Z,100119.14
2019-06-26T17:18:41.375Z,100135.41
2019-06-26T17:21:47.093Z,100140.38
2019-06-26T17:24:52.776Z,100151.11
2019-06-26T17:27:58.432Z,100158.80
2019-06-26T17:31:04.242Z,100151.70
2019-06-26T17:34:09.940Z,100141.95
2019-06-26T17:37:16.669Z,100151.11
2019-06-26T17:40:22.573Z,100144.64
2019-06-26T17:43:29.379Z,100136.85
2019-06-26T17:46:35.069Z,100145.37
2019-06-26T17:49:40.728Z,100146.34
2019-06-26T17:52:46.425Z,100141.54
2019-06-26T17:55:52.099Z,100125.13
2019-06-26T17:58:57.817Z,100127.32
2019-06-26T18:02:03.589Z,100129.25
2019-06-26T18:05:09.715Z,100136.14
2019-06-26T18:08:15.594Z,100136.23
2019-06-26T18:11:21.425Z,100138.86
2019-06-26T18:14:27.064Z,100140.20
2019-06-26T18:17:32.751Z,100140.19
2019-06-26T18:20:38.573Z,100144.91
2019-06-26T18:23:44.397Z,100143.38
2019-06-26T18:26:50.070Z,100148.34
2019-06-26T18:29:55.808Z,100153.02
2019-06-26T18:33:02.067Z,100148.48
2019-06-26T18:36:10.018Z,100147.31
2019-06-26T18:39:27.247Z,100139.19
2019-06-26T18:42:32.980Z,100149.08
2019-06-26T18:45:38.678Z,100150.38
2019-06-26T18:48:45.561Z,100153.05
2019-06-26T18:51:51.233Z,100151.53
2019-06-26T18:54:56.940Z,100157.23
2019-06-26T18:58:02.618Z,100151.41
2019-06-26T19:01:08.275Z,100159.61
2019-06-26T19:04:13.972Z,100164.62
2019-06-26T19:07:19.676Z,100167.59
2019-06-26T19:10:25.348Z,100162.63
2019-06-26T19:13:31.038Z,100163.06
2019-06-26T19:16:37.839Z,100165.09
2019-06-26T19:19:43.580Z,100163.45
2019-06-26T19:22:49.286Z,100160.52
2019-06-26T19:25:55.023Z,100160.56
2019-06-26T19:29:00.706Z,100161.77
2019-06-26T19:32:06.497Z,100172.02
2019-06-26T19:35:20.322Z,100169.65
2019-06-26T19:38:20.334Z,100166.88
2019-06-26T19:41:26.030Z,100169.40
2019-06-26T19:44:31.748Z,100171.16
2019-06-26T19:47:37.572Z,100168.56
2019-06-26T19:50:43.287Z,100165.89
2019-06-26T19:53:49.082Z,100163.55
2019-06-26T19:56:54.833Z,100155.39
2019-06-26T20:00:00.799Z,100156.43
2019-06-26T20:03:06.745Z,100153.92
2019-06-26T20:06:42.331Z,100146.96
2019-06-26T20:09:54.891Z,100148.84
2019-06-26T20:12:57.380Z,100154.81
2019-06-26T20:16:02.877Z,100163.55
2019-06-26T20:19:08.684Z,100158.59
2019-06-26T20:22:14.427Z,100165.29
2019-06-26T20:25:20.709Z,100166.31
2019-06-26T20:28:26.237Z,100161.06
2019-06-26T20:31:31.760Z,100162.30
2019-06-26T20:34:37.292Z,100160.25
2019-06-26T20:37:43.860Z,100156.13
2019-06-26T20:40:49.395Z,100156.70
2019-06-26T20:43:54.930Z,100145.78
2019-06-26T20:47:01.491Z,100160.20
2019-06-26T20:50:07.521Z,100187.30
2019-06-26T20:53:13.017Z,100188.98
2019-06-26T20:56:18.570Z,100179.43
2019-06-26T20:59:24.188Z,100171.88
2019-06-26T21:02:29.761Z,100165.39
2019-06-26T21:05:35.264Z,100166.22
2019-06-26T21:08:40.825Z,100160.36
2019-06-26T21:11:46.365Z,100154.89
2019-06-26T21:14:51.929Z,100152.46
2019-06-26T21:17:57.475Z,100137.91
2019-06-26T21:21:03.013Z,100136.09
2019-06-26T21:24:08.573Z,100136.70
2019-06-26T21:27:14.054Z,100134.48
2019-06-26T21:30:19.747Z,100131.78
2019-06-26T21:33:25.239Z,100127.11
2019-06-26T21:36:30.780Z,100125.28
2019-06-26T21:39:36.292Z,100119.16
2019-06-26T21:42:41.827Z,100110.66
2019-06-26T21:45:47.389Z,100120.22
2019-06-26T21:48:52.887Z,100115.50
2019-06-26T21:51:58.498Z,100117.64
2019-06-26T21:55:04.310Z,100109.14
2019-06-26T21:58:27.544Z,100112.20
2019-06-26T22:01:51.015Z,100115.64
2019-06-26T22:05:14.417Z,100109.68
2019-06-26T22:08:36.660Z,100113.48
2019-06-26T22:11:43.826Z,100110.50
2019-06-26T22:14:49.399Z,100104.19
2019-06-26T22:17:55.164Z,100103.77
2019-06-26T22:21:00.753Z,100103.31
2019-06-26T22:24:06.416Z,100099.70
2019-06-26T22:27:12.128Z,100101.58
2019-06-26T22:30:19.250Z,100092.95
2019-06-26T22:33:24.986Z,100091.27
2019-06-26T22:36:31.455Z,100091.35
2019-06-26T22:39:37.085Z,100089.84
2019-06-26T22:42:42.662Z,100085.13
2019-06-26T22:45:48.316Z,100084.81
2019-06-26T22:48:53.961Z,100078.78
2019-06-26T22:52:00.069Z,100079.75
2019-06-26T22:55:06.292Z,100072.05
2019-06-26T22:58:12.107Z,100072.11
2019-06-26T23:01:17.942Z,100066.70
2019-06-26T23:04:23.880Z,100067.89
2019-06-26T23:07:29.772Z,100064.40
2019-06-26T23:10:35.460Z,100064.55
2019-06-26T23:13:41.171Z,100074.72
2019-06-26T23:16:46.859Z,100063.73
2019-06-26T23:19:52.547Z,100062.55
2019-06-26T23:22:58.200Z,100060.03
2019-06-26T23:26:03.963Z,100056.27
2019-06-26T23:29:09.816Z,100056.07
2019-06-26T23:32:15.547Z,100055.02
2019-06-26T23:35:21.228Z,100060.67
2019-06-26T23:38:26.928Z,100055.70
2019-06-26T23:41:32.605Z,100058.30
2019-06-26T23:44:38.311Z,100055.78
2019-06-26T23:47:44.040Z,100060.22
2019-06-26T23:50:49.723Z,100063.26
2019-06-26T23:53:56.410Z,100062.74
2019-06-26T23:57:02.111Z,100060.09
